Time;durP1;ratioP1;P1;durP2;ratioP2;P2;SDS_P1;SDS_P2;PMS_P1;PMS_P2;Temp;Humidity;BMP_temperature;BMP_pressure;BME280_temperature;BME280_humidity;BME280_pressure;Samples;Min_cycle;Max_cycle;Signal;HPM_P1;HPM_P2
2023/09/15 00:01:51;;;;;;;1.40;1.30;;;;;;;;;;7299762;19;142014;-74
2023/09/15 00:04:19;;;;;;;1.98;1.20;;;;;;;;;;7307660;19;140495;-74
2023/09/15 00:06:47;;;;;;;1.50;1.20;;;;;;;;;;7306920;19;140596;-74
2023/09/15 00:09:15;;;;;;;1.42;1.33;;;;;;;;;;7307032;19;141787;-73
2023/09/15 00:11:42;;;;;;;1.27;1.17;;;;;;;;;;7305433;19;142066;-74
2023/09/15 00:14:13;;;;;;;1.42;1.20;;;;;;;;;;7307072;19;140678;-73
2023/09/15 00:16:41;;;;;;;1.30;1.20;;;;;;;;;;7306997;19;140470;-73
2023/09/15 00:19:13;;;;;;;1.45;1.35;;;;;;;;;;7306501;19;141008;-74
2023/09/15 00:21:42;;;;;;;1.95;1.20;;;;;;;;;;7306557;19;140733;-74
2023/09/15 00:24:09;;;;;;;1.58;1.30;;;;;;;;;;7306768;19;140587;-74
2023/09/15 00:26:38;;;;;;;1.85;1.40;;;;;;;;;;7305687;19;140556;-74
2023/09/15 00:29:05;;;;;;;1.30;1.20;;;;;;;;;;7306817;19;140768;-74
2023/09/15 00:31:32;;;;;;;1.40;1.30;;;;;;;;;;7306653;19;141608;-74
2023/09/15 00:33:59;;;;;;;1.38;1.15;;;;;;;;;;7306916;19;140676;-74
2023/09/15 00:36:26;;;;;;;1.50;1.40;;;;;;;;;;7305866;19;140623;-74
2023/09/15 00:38:54;;;;;;;1.40;1.30;;;;;;;;;;7304741;19;141027;-74
2023/09/15 00:41:21;;;;;;;1.30;1.20;;;;;;;;;;7306737;19;140936;-73
2023/09/15 00:43:48;;;;;;;1.25;1.15;;;;;;;;;;7306166;19;140677;-73
2023/09/15 00:46:16;;;;;;;1.30;1.20;;;;;;;;;;7306531;19;140332;-73
2023/09/15 00:48:45;;;;;;;1.33;1.23;;;;;;;;;;7306328;19;141079;-75
2023/09/15 00:51:14;;;;;;;1.58;1.30;;;;;;;;;;7305056;19;142086;-75
2023/09/15 00:53:41;;;;;;;1.75;1.20;;;;;;;;;;7306036;19;140478;-75
2023/09/15 00:56:08;;;;;;;2.00;1.30;;;;;;;;;;7306120;19;140865;-74
2023/09/15 00:58:40;;;;;;;1.23;1.13;;;;;;;;;;7305610;19;141727;-74
2023/09/15 01:01:08;;;;;;;1.15;1.05;;;;;;;;;;7305924;19;142191;-75
2023/09/15 01:03:40;;;;;;;1.30;1.20;;;;;;;;;;7306184;19;140440;-75
2023/09/15 01:06:11;;;;;;;1.10;0.93;;;;;;;;;;7304822;19;140469;-74
2023/09/15 01:08:38;;;;;;;1.20;1.15;;;;;;;;;;7305339;19;140953;-76
2023/09/15 01:11:05;;;;;;;1.13;1.00;;;;;;;;;;7305187;19;141987;-75
2023/09/15 01:13:33;;;;;;;1.20;1.10;;;;;;;;;;7304538;19;140596;-75
2023/09/15 01:16:05;;;;;;;1.60;1.13;;;;;;;;;;7305164;19;140675;-75
2023/09/15 01:18:38;;;;;;;1.35;1.20;;;;;;;;;;7304659;19;140791;-74
2023/09/15 01:21:24;;;;;;;1.30;1.20;;;;;;;;;;7304353;19;142211;-75
2023/09/15 01:24:09;;;;;;;1.38;1.27;;;;;;;;;;7305478;19;140501;-75
2023/09/15 01:26:48;;;;;;;1.05;1.00;;;;;;;;;;7304539;19;140444;-75
2023/09/15 01:29:37;;;;;;;1.02;0.93;;;;;;;;;;7303297;19;141968;-76
2023/09/15 01:32:06;;;;;;;1.20;1.05;;;;;;;;;;7305103;19;141731;-75
2023/09/15 01:34:34;;;;;;;1.10;1.00;;;;;;;;;;7304509;19;140666;-75
2023/09/15 01:37:02;;;;;;;1.27;1.17;;;;;;;;;;7304674;19;141873;-75
2023/09/15 01:39:30;;;;;;;1.30;1.20;;;;;;;;;;7304585;19;141808;-75
2023/09/15 01:41:58;;;;;;;1.40;1.30;;;;;;;;;;7304196;19;141837;-74
2023/09/15 01:44:26;;;;;;;1.20;1.10;;;;;;;;;;7303226;19;140483;-75
2023/09/15 01:46:53;;;;;;;1.30;1.20;;;;;;;;;;7304223;19;140491;-75
2023/09/15 01:49:21;;;;;;;1.17;1.02;;;;;;;;;;7304256;19;141193;-75
2023/09/15 01:51:48;;;;;;;1.00;0.90;;;;;;;;;;7303360;19;141834;-75
2023/09/15 01:54:16;;;;;;;1.65;0.90;;;;;;;;;;7304164;19;140586;-75
2023/09/15 01:56:43;;;;;;;1.33;1.00;;;;;;;;;;7303985;19;140555;-75
2023/09/15 01:59:12;;;;;;;1.10;0.90;;;;;;;;;;7304109;19;141908;-75
2023/09/15 02:01:39;;;;;;;1.10;1.00;;;;;;;;;;7302990;19;141951;-75
2023/09/15 02:04:06;;;;;;;1.10;1.00;;;;;;;;;;7304466;19;140733;-75
2023/09/15 02:06:33;;;;;;;0.80;0.80;;;;;;;;;;7302812;19;140638;-75
2023/09/15 02:09:00;;;;;;;0.90;0.90;;;;;;;;;;7303260;19;141959;-75
2023/09/15 02:11:27;;;;;;;1.10;1.00;;;;;;;;;;7303408;19;140802;-75
2023/09/15 02:13:54;;;;;;;1.00;0.90;;;;;;;;;;7303844;19;140534;-75
2023/09/15 02:16:21;;;;;;;0.95;0.95;;;;;;;;;;7303927;19;140594;-75
2023/09/15 02:18:49;;;;;;;0.90;0.90;;;;;;;;;;7303102;19;141309;-75
2023/09/15 02:21:16;;;;;;;1.20;1.10;;;;;;;;;;7302539;19;141782;-75
2023/09/15 02:23:43;;;;;;;1.25;1.15;;;;;;;;;;7303200;19;140290;-75
2023/09/15 02:26:10;;;;;;;0.98;0.95;;;;;;;;;;7301180;19;140807;-75
2023/09/15 02:28:38;;;;;;;0.88;0.82;;;;;;;;;;7303213;19;140800;-75
2023/09/15 02:31:05;;;;;;;0.93;0.90;;;;;;;;;;7302681;19;142154;-75
2023/09/15 02:33:34;;;;;;;1.20;1.10;;;;;;;;;;7302916;19;140692;-75
2023/09/15 02:36:03;;;;;;;1.07;1.03;;;;;;;;;;7302179;19;140763;-75
2023/09/15 02:38:30;;;;;;;1.20;1.10;;;;;;;;;;7301514;19;143701;-75
2023/09/15 02:40:57;;;;;;;0.93;0.90;;;;;;;;;;7302620;19;142537;-75
2023/09/15 02:43:24;;;;;;;1.10;1.00;;;;;;;;;;7302208;19;140693;-75
2023/09/15 02:45:51;;;;;;;1.10;1.00;;;;;;;;;;7303168;19;140457;-75
2023/09/15 02:48:18;;;;;;;0.98;0.93;;;;;;;;;;7302430;19;141068;-74
2023/09/15 02:50:46;;;;;;;0.90;0.90;;;;;;;;;;7302073;19;141916;-75
2023/09/15 02:53:13;;;;;;;1.00;1.00;;;;;;;;;;7302057;19;140543;-75
2023/09/15 02:55:41;;;;;;;0.82;0.82;;;;;;;;;;7302392;19;140506;-75
2023/09/15 02:58:08;;;;;;;1.00;0.90;;;;;;;;;;7301881;19;141132;-75
2023/09/15 03:00:35;;;;;;;0.98;0.98;;;;;;;;;;7302008;19;141875;-75
2023/09/15 03:03:03;;;;;;;1.02;0.93;;;;;;;;;;7302417;19;140454;-75
2023/09/15 03:05:30;;;;;;;1.20;1.10;;;;;;;;;;7301320;19;140456;-75
2023/09/15 03:07:58;;;;;;;1.58;1.00;;;;;;;;;;7301073;19;141795;-74
2023/09/15 03:10:25;;;;;;;0.90;0.85;;;;;;;;;;7301436;19;141323;-73
2023/09/15 03:12:53;;;;;;;0.70;0.70;;;;;;;;;;7301067;19;140643;-73
2023/09/15 03:15:20;;;;;;;1.40;1.00;;;;;;;;;;7301605;19;140568;-73
2023/09/15 03:17:50;;;;;;;1.10;1.00;;;;;;;;;;7301176;19;141217;-74
2023/09/15 03:20:19;;;;;;;1.08;0.90;;;;;;;;;;7301325;19;142542;-74
2023/09/15 03:22:46;;;;;;;0.70;0.70;;;;;;;;;;7300629;19;140753;-74
2023/09/15 03:25:17;;;;;;;1.10;1.00;;;;;;;;;;7301046;19;140616;-74
2023/09/15 03:27:44;;;;;;;0.90;0.90;;;;;;;;;;7301470;19;141522;-74
2023/09/15 03:30:11;;;;;;;1.35;0.80;;;;;;;;;;7300995;19;142538;-74
2023/09/15 03:32:38;;;;;;;0.80;0.80;;;;;;;;;;7301031;19;140533;-74
2023/09/15 03:35:07;;;;;;;0.90;0.80;;;;;;;;;;7300864;19;140594;-73
2023/09/15 03:37:34;;;;;;;0.70;0.70;;;;;;;;;;7299582;19;141373;-73
2023/09/15 03:40:02;;;;;;;1.00;0.85;;;;;;;;;;7298546;19;142017;-72
2023/09/15 03:42:29;;;;;;;0.90;0.90;;;;;;;;;;7300424;19;140958;-72
2023/09/15 03:44:56;;;;;;;0.80;0.80;;;;;;;;;;7300308;19;140594;-70
2023/09/15 03:47:23;;;;;;;0.70;0.70;;;;;;;;;;7300119;19;142077;-72
2023/09/15 03:49:51;;;;;;;0.88;0.88;;;;;;;;;;7300540;19;141748;-69
2023/09/15 03:52:18;;;;;;;0.70;0.70;;;;;;;;;;7299926;19;140831;-73
2023/09/15 03:54:45;;;;;;;0.70;0.70;;;;;;;;;;7300035;19;140975;-70
2023/09/15 03:57:15;;;;;;;0.80;0.80;;;;;;;;;;7298593;19;142418;-71
2023/09/15 03:59:42;;;;;;;0.70;0.70;;;;;;;;;;7300153;19;142046;-72
2023/09/15 04:02:09;;;;;;;0.90;0.90;;;;;;;;;;7299034;19;140760;-72
2023/09/15 04:04:36;;;;;;;1.00;0.90;;;;;;;;;;7300307;19;140632;-72
2023/09/15 04:07:03;;;;;;;0.77;0.77;;;;;;;;;;7298839;19;141700;-73
2023/09/15 04:09:30;;;;;;;1.02;0.90;;;;;;;;;;7299413;19;141838;-71
2023/09/15 04:11:57;;;;;;;0.95;0.80;;;;;;;;;;7299815;19;141159;-72
2023/09/15 04:14:25;;;;;;;0.80;0.80;;;;;;;;;;7299055;19;140743;-72
2023/09/15 04:16:52;;;;;;;0.80;0.80;;;;;;;;;;7298613;19;140932;-72
2023/09/15 04:19:19;;;;;;;0.95;0.90;;;;;;;;;;7296815;19;142070;-74
2023/09/15 04:21:47;;;;;;;0.73;0.73;;;;;;;;;;7297659;19;141627;-74
2023/09/15 04:24:14;;;;;;;0.80;0.80;;;;;;;;;;7299678;19;141204;-73
2023/09/15 04:26:42;;;;;;;0.75;0.75;;;;;;;;;;7298820;19;141049;-74
2023/09/15 04:29:09;;;;;;;0.82;0.70;;;;;;;;;;7297116;19;141886;-76
2023/09/15 04:31:37;;;;;;;0.70;0.70;;;;;;;;;;7299416;19;140691;-75
2023/09/15 04:34:04;;;;;;;1.27;1.00;;;;;;;;;;7299236;19;140698;-75
2023/09/15 04:36:31;;;;;;;0.75;0.75;;;;;;;;;;7298508;19;140969;-74
2023/09/15 04:38:58;;;;;;;2.35;0.95;;;;;;;;;;7297080;19;140781;-76
2023/09/15 04:41:26;;;;;;;0.73;0.70;;;;;;;;;;7299009;19;140435;-75
2023/09/15 04:43:53;;;;;;;0.65;0.65;;;;;;;;;;7297457;19;140474;-74
2023/09/15 04:46:20;;;;;;;0.60;0.60;;;;;;;;;;7297424;19;141700;-74
2023/09/15 04:48:47;;;;;;;0.70;0.70;;;;;;;;;;7301705;19;141913;-77
2023/09/15 04:51:15;;;;;;;1.98;1.70;;;;;;;;;;7306355;19;140437;-78
2023/09/15 04:53:42;;;;;;;4.63;1.80;;;;;;;;;;7305207;19;140713;-79
2023/09/15 04:56:09;;;;;;;3.38;1.80;;;;;;;;;;7305497;19;141171;-77
2023/09/15 04:58:36;;;;;;;1.73;1.63;;;;;;;;;;7305483;19;142086;-76
2023/09/15 05:01:05;;;;;;;3.20;1.92;;;;;;;;;;7306134;19;140594;-78
2023/09/15 05:03:33;;;;;;;3.33;1.90;;;;;;;;;;7303732;19;140680;-76
2023/09/15 05:06:00;;;;;;;6.78;2.03;;;;;;;;;;7305022;19;141052;-77
2023/09/15 05:08:27;;;;;;;2.58;2.00;;;;;;;;;;7304760;19;142043;-76
2023/09/15 05:10:54;;;;;;;4.00;2.22;;;;;;;;;;7305120;19;140585;-77
2023/09/15 05:13:21;;;;;;;2.67;2.08;;;;;;;;;;7305540;19;140561;-75
2023/09/15 05:15:48;;;;;;;3.60;1.75;;;;;;;;;;7303969;19;140829;-78
2023/09/15 05:18:16;;;;;;;2.33;1.90;;;;;;;;;;7304383;19;141987;-76
2023/09/15 05:20:43;;;;;;;4.75;2.20;;;;;;;;;;7305133;19;140547;-76
2023/09/15 05:23:10;;;;;;;6.60;2.13;;;;;;;;;;7304568;19;140622;-77
2023/09/15 05:25:37;;;;;;;4.95;2.00;;;;;;;;;;7304595;19;141715;-76
2023/09/15 05:28:04;;;;;;;3.75;2.03;;;;;;;;;;7304779;19;142420;-76
2023/09/15 05:30:32;;;;;;;3.65;1.98;;;;;;;;;;7304495;19;140686;-78
2023/09/15 05:32:59;;;;;;;2.63;2.08;;;;;;;;;;7303968;19;140414;-76
2023/09/15 05:35:26;;;;;;;2.75;2.13;;;;;;;;;;7304196;19;140965;-76
2023/09/15 05:37:53;;;;;;;4.45;2.17;;;;;;;;;;7303686;19;142774;-78
2023/09/15 05:40:20;;;;;;;3.20;2.20;;;;;;;;;;7304684;19;140833;-78
2023/09/15 05:42:47;;;;;;;4.18;2.20;;;;;;;;;;7304769;19;140898;-78
2023/09/15 05:45:15;;;;;;;3.78;2.30;;;;;;;;;;7303608;19;141161;-78
2023/09/15 05:47:43;;;;;;;2.40;2.20;;;;;;;;;;7302260;19;140773;-76
2023/09/15 05:50:10;;;;;;;2.97;2.08;;;;;;;;;;7303877;19;140491;-77
2023/09/15 05:52:37;;;;;;;2.67;2.13;;;;;;;;;;7303120;19;140606;-76
2023/09/15 05:55:04;;;;;;;4.00;2.30;;;;;;;;;;7306541;19;140504;-76
2023/09/15 05:57:32;;;;;;;3.85;2.20;;;;;;;;;;7304456;19;140812;-76
2023/09/15 05:59:59;;;;;;;3.65;2.30;;;;;;;;;;7299664;19;140590;-76
2023/09/15 06:02:26;;;;;;;3.30;2.22;;;;;;;;;;7303773;19;140545;-76
2023/09/15 06:04:53;;;;;;;3.22;2.10;;;;;;;;;;7303249;19;140997;-76
2023/09/15 06:07:21;;;;;;;2.60;1.80;;;;;;;;;;7302347;19;140838;-76
2023/09/15 06:09:48;;;;;;;3.00;1.95;;;;;;;;;;7303383;19;140663;-76
2023/09/15 06:12:15;;;;;;;3.15;1.83;;;;;;;;;;7303567;19;140604;-76
2023/09/15 06:14:42;;;;;;;2.55;1.95;;;;;;;;;;7302955;19;140953;-76
2023/09/15 06:17:09;;;;;;;2.10;1.88;;;;;;;;;;7302938;19;142057;-76
2023/09/15 06:19:36;;;;;;;2.42;1.95;;;;;;;;;;7301912;19;141131;-76
2023/09/15 06:22:05;;;;;;;3.13;2.17;;;;;;;;;;7301560;19;140724;-76
2023/09/15 06:24:32;;;;;;;2.75;2.05;;;;;;;;;;7302062;19;140774;-78
2023/09/15 06:26:59;;;;;;;2.35;2.03;;;;;;;;;;7302619;19;140570;-77
2023/09/15 06:29:26;;;;;;;3.10;2.10;;;;;;;;;;7302660;19;140432;-78
2023/09/15 06:31:53;;;;;;;3.35;2.00;;;;;;;;;;7301356;19;140361;-76
2023/09/15 06:34:20;;;;;;;2.90;1.85;;;;;;;;;;7301944;19;141231;-76
2023/09/15 06:36:47;;;;;;;3.55;2.00;;;;;;;;;;7302300;19;140759;-77
2023/09/15 06:39:15;;;;;;;2.60;2.10;;;;;;;;;;7301837;19;140629;-78
2023/09/15 06:41:42;;;;;;;3.15;1.92;;;;;;;;;;7302450;19;140470;-77
2023/09/15 06:44:10;;;;;;;1.90;1.73;;;;;;;;;;7302107;19;141632;-77
2023/09/15 06:46:37;;;;;;;3.55;2.10;;;;;;;;;;7301442;19;141928;-76
2023/09/15 06:49:08;;;;;;;3.23;1.97;;;;;;;;;;7301893;19;140848;-77
2023/09/15 06:51:35;;;;;;;2.38;1.88;;;;;;;;;;7302553;19;140451;-77
2023/09/15 06:54:02;;;;;;;2.38;2.00;;;;;;;;;;7301323;19;141085;-77
2023/09/15 06:56:29;;;;;;;2.38;1.92;;;;;;;;;;7299807;19;142235;-77
2023/09/15 06:58:56;;;;;;;2.42;1.92;;;;;;;;;;7301790;19;140376;-77
2023/09/15 07:01:23;;;;;;;2.15;1.95;;;;;;;;;;7301640;19;140846;-77
2023/09/15 07:03:50;;;;;;;2.67;2.10;;;;;;;;;;7301808;19;140813;-77
2023/09/15 07:06:18;;;;;;;2.60;1.85;;;;;;;;;;7301466;19;141834;-78
2023/09/15 07:08:47;;;;;;;2.47;1.80;;;;;;;;;;7299326;19;140832;-77
2023/09/15 07:11:15;;;;;;;2.30;2.10;;;;;;;;;;7298745;19;140856;-78
2023/09/15 07:13:50;;;;;;;2.50;1.90;;;;;;;;;;7301137;19;141736;-78
2023/09/15 07:16:18;;;;;;;2.58;1.90;;;;;;;;;;7300804;19;141975;-76
2023/09/15 07:18:45;;;;;;;2.67;2.33;;;;;;;;;;7301192;19;140544;-76
2023/09/15 07:21:12;;;;;;;2.95;2.10;;;;;;;;;;7300722;19;140386;-76
2023/09/15 07:23:39;;;;;;;3.88;2.15;;;;;;;;;;7300281;19;141747;-77
2023/09/15 07:26:07;;;;;;;2.10;1.90;;;;;;;;;;7301154;19;142718;-77
2023/09/15 07:28:34;;;;;;;3.38;2.28;;;;;;;;;;7301051;19;140698;-77
2023/09/15 07:31:02;;;;;;;2.42;1.90;;;;;;;;;;7300972;19;140664;-75
2023/09/15 07:33:29;;;;;;;2.63;1.95;;;;;;;;;;7299906;19;140521;-78
2023/09/15 07:36:00;;;;;;;2.60;2.03;;;;;;;;;;7300539;19;142087;-77
2023/09/15 07:38:27;;;;;;;2.80;2.10;;;;;;;;;;7300093;19;140682;-77
2023/09/15 07:40:57;;;;;;;2.78;2.10;;;;;;;;;;7298455;19;140765;-78
2023/09/15 07:43:24;;;;;;;2.17;1.90;;;;;;;;;;7300508;19;141057;-77
2023/09/15 07:45:51;;;;;;;2.72;1.98;;;;;;;;;;7299292;19;141898;-77
2023/09/15 07:48:18;;;;;;;2.53;2.10;;;;;;;;;;7300560;19;140433;-77
2023/09/15 07:50:46;;;;;;;3.78;1.92;;;;;;;;;;7300628;19;140839;-77
2023/09/15 07:53:13;;;;;;;2.88;2.17;;;;;;;;;;7302371;19;140532;-77
2023/09/15 07:55:40;;;;;;;2.00;1.80;;;;;;;;;;7299658;19;142067;-78
2023/09/15 07:58:07;;;;;;;2.40;2.15;;;;;;;;;;7300461;19;140471;-77
2023/09/15 08:00:34;;;;;;;3.60;1.90;;;;;;;;;;7298389;19;140647;-77
2023/09/15 08:03:01;;;;;;;2.80;2.10;;;;;;;;;;7300225;19;141593;-77
2023/09/15 08:05:29;;;;;;;2.30;2.10;;;;;;;;;;7298121;19;141832;-77
2023/09/15 08:07:56;;;;;;;2.15;1.92;;;;;;;;;;7299705;19;140531;-77
2023/09/15 08:10:24;;;;;;;2.33;2.13;;;;;;;;;;7300097;19;140601;-78
2023/09/15 08:12:52;;;;;;;2.30;2.03;;;;;;;;;;7298083;19;140623;-78
2023/09/15 08:15:20;;;;;;;2.53;2.00;;;;;;;;;;7299447;19;142179;-77
2023/09/15 08:17:47;;;;;;;2.25;1.90;;;;;;;;;;7298806;19;140570;-75
2023/09/15 08:20:15;;;;;;;2.38;1.90;;;;;;;;;;7299557;19;140786;-77
2023/09/15 08:22:42;;;;;;;2.45;2.25;;;;;;;;;;7299386;19;141211;-77
2023/09/15 08:25:12;;;;;;;1.98;1.88;;;;;;;;;;7305298;19;142145;-76
2023/09/15 08:27:39;;;;;;;2.35;1.88;;;;;;;;;;7306184;19;140768;-76
2023/09/15 08:30:09;;;;;;;2.85;2.03;;;;;;;;;;7306873;19;140489;-76
2023/09/15 08:32:37;;;;;;;1.75;1.65;;;;;;;;;;7304875;19;141082;-76
2023/09/15 08:35:05;;;;;;;2.00;1.90;;;;;;;;;;7305892;19;141988;-76
2023/09/15 08:37:32;;;;;;;2.13;1.90;;;;;;;;;;7306137;19;140663;-77
2023/09/15 08:40:00;;;;;;;2.17;1.98;;;;;;;;;;7305678;19;140512;-76
2023/09/15 08:42:28;;;;;;;2.70;2.10;;;;;;;;;;7305660;19;141159;-76
2023/09/15 08:44:58;;;;;;;2.25;2.05;;;;;;;;;;7307819;19;141120;-81
2023/09/15 08:47:29;;;;;;;2.60;2.08;;;;;;;;;;7305869;19;140722;-81
2023/09/15 08:49:57;;;;;;;2.53;2.00;;;;;;;;;;7304395;19;140553;-80
2023/09/15 08:52:24;;;;;;;2.65;2.10;;;;;;;;;;7304950;19;142236;-79
2023/09/15 08:54:52;;;;;;;2.53;2.08;;;;;;;;;;7304627;19;142663;-82
2023/09/15 08:57:19;;;;;;;4.30;2.40;;;;;;;;;;7305091;19;141756;-80
2023/09/15 08:59:46;;;;;;;2.63;2.17;;;;;;;;;;7303842;19;142057;-80
2023/09/15 09:02:16;;;;;;;3.33;2.05;;;;;;;;;;7303881;19;141757;-80
2023/09/15 09:04:46;;;;;;;3.08;2.50;;;;;;;;;;7304666;19;142727;-80
2023/09/15 09:07:14;;;;;;;4.83;3.03;;;;;;;;;;7302970;19;140713;-80
2023/09/15 09:09:42;;;;;;;5.57;3.40;;;;;;;;;;7299499;19;141157;-80
2023/09/15 09:12:09;;;;;;;5.10;3.03;;;;;;;;;;7304293;19;140874;-82
2023/09/15 09:14:36;;;;;;;4.85;3.03;;;;;;;;;;7301686;19;141840;-77
2023/09/15 09:17:06;;;;;;;6.40;3.30;;;;;;;;;;7304371;19;141985;-77
2023/09/15 09:19:37;;;;;;;5.82;3.25;;;;;;;;;;7305674;19;140623;-74
2023/09/15 09:22:07;;;;;;;4.82;3.40;;;;;;;;;;7304248;19;141176;-74
2023/09/15 09:24:35;;;;;;;5.75;3.45;;;;;;;;;;7303012;19;142987;-88
2023/09/15 09:27:07;;;;;;;6.18;3.13;;;;;;;;;;7305392;19;140468;-79
2023/09/15 09:29:35;;;;;;;6.28;3.10;;;;;;;;;;7307027;19;141896;-79
2023/09/15 09:32:03;;;;;;;5.40;3.05;;;;;;;;;;7304692;19;141792;-77
2023/09/15 09:34:30;;;;;;;3.70;2.92;;;;;;;;;;7303495;19;142502;-77
2023/09/15 09:37:15;;;;;;;4.93;2.80;;;;;;;;;;7304854;19;141528;-76
2023/09/15 09:39:44;;;;;;;4.27;2.70;;;;;;;;;;7303131;19;140832;-78
2023/09/15 09:42:11;;;;;;;6.50;2.78;;;;;;;;;;7301842;19;141031;-78
2023/09/15 09:44:38;;;;;;;5.95;2.75;;;;;;;;;;7302268;19;143345;-77
2023/09/15 09:47:07;;;;;;;4.07;2.75;;;;;;;;;;7304926;19;140785;-78
2023/09/15 09:49:37;;;;;;;3.58;2.67;;;;;;;;;;7304437;19;140528;-80
2023/09/15 09:52:13;;;;;;;3.55;2.60;;;;;;;;;;7303884;19;141847;-78
2023/09/15 09:54:40;;;;;;;4.57;2.70;;;;;;;;;;7301158;19;142021;-78
2023/09/15 09:57:07;;;;;;;3.88;2.60;;;;;;;;;;7303952;19;140656;-76
2023/09/15 09:59:37;;;;;;;2.80;2.38;;;;;;;;;;7302879;19;140887;-77
2023/09/15 10:02:05;;;;;;;3.08;2.70;;;;;;;;;;7302023;19;140835;-77
2023/09/15 10:04:33;;;;;;;3.70;2.78;;;;;;;;;;7301890;19;141894;-77
2023/09/15 10:07:00;;;;;;;4.65;2.65;;;;;;;;;;7302961;19;140782;-77
2023/09/15 10:09:29;;;;;;;4.97;2.40;;;;;;;;;;7300351;19;141139;-77
2023/09/15 10:11:56;;;;;;;3.10;2.38;;;;;;;;;;7302762;19;140937;-77
2023/09/15 10:14:25;;;;;;;2.90;2.42;;;;;;;;;;7302887;19;142949;-78
2023/09/15 10:16:52;;;;;;;3.75;2.70;;;;;;;;;;7303056;19;140434;-78
2023/09/15 10:19:20;;;;;;;2.85;2.17;;;;;;;;;;7301255;19;141877;-76
2023/09/15 10:21:48;;;;;;;2.47;2.20;;;;;;;;;;7302204;19;140487;-77
2023/09/15 10:24:15;;;;;;;4.15;2.40;;;;;;;;;;7300702;19;142353;-76
2023/09/15 10:26:43;;;;;;;3.03;2.30;;;;;;;;;;7301215;19;142541;-77
2023/09/15 10:29:13;;;;;;;3.45;2.80;;;;;;;;;;7302967;19;140823;-76
2023/09/15 10:31:52;;;;;;;3.88;2.47;;;;;;;;;;7302172;19;141198;-77
2023/09/15 10:34:20;;;;;;;3.15;2.25;;;;;;;;;;7302181;19;141491;-77
2023/09/15 10:36:47;;;;;;;2.83;2.30;;;;;;;;;;7302762;19;140678;-76
2023/09/15 10:39:16;;;;;;;2.70;2.25;;;;;;;;;;7301488;19;140562;-77
2023/09/15 10:41:44;;;;;;;2.95;2.20;;;;;;;;;;7301099;19;141039;-78
2023/09/15 10:44:11;;;;;;;3.13;2.10;;;;;;;;;;7301979;19;142794;-76
2023/09/15 10:46:40;;;;;;;2.65;2.30;;;;;;;;;;7300946;19;140694;-79
2023/09/15 10:49:18;;;;;;;2.80;1.98;;;;;;;;;;7301972;19;141628;-78
2023/09/15 10:51:55;;;;;;;2.92;2.33;;;;;;;;;;7300206;19;141589;-79
2023/09/15 10:54:26;;;;;;;2.80;2.40;;;;;;;;;;7300180;19;141883;-77
2023/09/15 10:56:54;;;;;;;2.78;2.10;;;;;;;;;;7302310;19;140622;-76
2023/09/15 10:59:21;;;;;;;2.28;2.08;;;;;;;;;;7302146;19;140895;-78
2023/09/15 11:01:48;;;;;;;2.22;1.98;;;;;;;;;;7299616;19;141684;-78
2023/09/15 11:04:21;;;;;;;2.53;2.13;;;;;;;;;;7301590;19;140843;-77
2023/09/15 11:06:49;;;;;;;3.03;2.20;;;;;;;;;;7297928;19;140958;-75
2023/09/15 11:09:16;;;;;;;4.70;2.28;;;;;;;;;;7299348;19;142720;-77
2023/09/15 11:11:44;;;;;;;2.63;2.20;;;;;;;;;;7300760;19;140557;-77
2023/09/15 11:14:15;;;;;;;2.35;1.98;;;;;;;;;;7299787;19;143484;-78
2023/09/15 11:16:44;;;;;;;2.92;2.17;;;;;;;;;;7299637;19;141001;-78
2023/09/15 11:19:15;;;;;;;2.20;2.00;;;;;;;;;;7300064;19;140827;-78
2023/09/15 11:21:42;;;;;;;2.33;2.13;;;;;;;;;;7298348;19;142099;-76
2023/09/15 11:24:09;;;;;;;2.42;2.17;;;;;;;;;;7300462;19;142086;-78
2023/09/15 11:26:47;;;;;;;2.08;1.88;;;;;;;;;;7301314;19;140645;-77
2023/09/15 11:29:15;;;;;;;2.13;1.85;;;;;;;;;;7297231;19;141101;-76
2023/09/15 11:31:43;;;;;;;2.33;1.90;;;;;;;;;;7301316;19;140515;-77
2023/09/15 11:34:14;;;;;;;2.28;1.90;;;;;;;;;;7300894;19;142332;-78
2023/09/15 11:36:41;;;;;;;2.15;1.90;;;;;;;;;;7300412;19;140829;-76
2023/09/15 11:39:15;;;;;;;2.67;1.90;;;;;;;;;;7298041;19;142634;-78
2023/09/15 11:41:55;;;;;;;2.00;1.83;;;;;;;;;;7300293;19;141031;-79
2023/09/15 11:44:26;;;;;;;2.30;2.10;;;;;;;;;;7300659;19;141842;-78
2023/09/15 11:46:55;;;;;;;2.10;1.90;;;;;;;;;;7300124;19;141939;-75
2023/09/15 11:49:23;;;;;;;1.88;1.70;;;;;;;;;;7301126;19;140775;-75
2023/09/15 11:51:51;;;;;;;2.55;2.30;;;;;;;;;;7299198;19;140609;-78
2023/09/15 11:54:22;;;;;;;2.50;1.85;;;;;;;;;;7299227;19;142881;-76
2023/09/15 11:56:49;;;;;;;2.70;2.17;;;;;;;;;;7299590;19;140523;-75
2023/09/15 11:59:16;;;;;;;1.85;1.75;;;;;;;;;;7305055;19;140583;-75
2023/09/15 12:01:48;;;;;;;2.03;1.80;;;;;;;;;;7301256;19;141514;-75
2023/09/15 12:04:15;;;;;;;3.30;2.33;;;;;;;;;;7305226;19;143487;-75
2023/09/15 12:06:45;;;;;;;2.15;1.95;;;;;;;;;;7306534;19;140742;-78
2023/09/15 12:09:13;;;;;;;2.60;1.90;;;;;;;;;;7306792;19;140651;-77
2023/09/15 12:11:41;;;;;;;2.00;1.80;;;;;;;;;;7305221;19;140994;-76
2023/09/15 12:14:08;;;;;;;2.85;1.73;;;;;;;;;;7307096;19;140709;-78
2023/09/15 12:16:37;;;;;;;2.05;1.63;;;;;;;;;;7307182;19;140509;-77
2023/09/15 12:19:08;;;;;;;2.22;2.03;;;;;;;;;;7304382;19;140633;-76
2023/09/15 12:21:35;;;;;;;;;;;;;;;;;;7306626;19;141186;-76
2023/09/15 12:24:09;;;;;;;2.10;1.70;;;;;;;;;;7306667;19;146971;-77
2023/09/15 12:26:38;;;;;;;2.10;1.80;;;;;;;;;;7305961;19;140601;-77
2023/09/15 12:29:06;;;;;;;2.10;1.80;;;;;;;;;;7306135;19;140629;-77
2023/09/15 12:31:44;;;;;;;1.73;1.63;;;;;;;;;;7305733;19;141521;-77
2023/09/15 12:34:19;;;;;;;2.17;1.92;;;;;;;;;;7305464;19;141074;-77
2023/09/15 12:36:48;;;;;;;1.98;1.83;;;;;;;;;;7305204;19;140795;-77
2023/09/15 12:39:18;;;;;;;1.90;1.70;;;;;;;;;;7305292;19;140735;-77
2023/09/15 12:41:46;;;;;;;1.90;1.50;;;;;;;;;;7305008;19;142060;-77
2023/09/15 12:44:25;;;;;;;2.05;1.77;;;;;;;;;;7305397;19;143024;-77
2023/09/15 12:46:52;;;;;;;1.67;1.58;;;;;;;;;;7305888;19;140383;-77
2023/09/15 12:49:20;;;;;;;1.80;1.70;;;;;;;;;;7305976;19;140554;-77
2023/09/15 12:51:47;;;;;;;1.77;1.67;;;;;;;;;;7305490;19;140735;-77
2023/09/15 12:54:15;;;;;;;2.03;1.65;;;;;;;;;;7304869;19;140860;-77
2023/09/15 12:56:42;;;;;;;2.28;1.77;;;;;;;;;;7305313;19;140610;-77
2023/09/15 12:59:09;;;;;;;2.50;1.67;;;;;;;;;;7304196;19;140592;-75
2023/09/15 13:01:36;;;;;;;1.80;1.52;;;;;;;;;;7307684;19;140754;-75
2023/09/15 13:04:03;;;;;;;1.52;1.42;;;;;;;;;;7304766;19;141823;-75
2023/09/15 13:06:31;;;;;;;1.55;1.45;;;;;;;;;;7306472;19;140552;-74
2023/09/15 13:08:58;;;;;;;1.45;1.35;;;;;;;;;;7304022;19;140715;-74
2023/09/15 13:11:25;;;;;;;1.63;1.52;;;;;;;;;;7303155;19;140551;-75
2023/09/15 13:13:52;;;;;;;1.83;1.70;;;;;;;;;;7303862;19;142605;-74
2023/09/15 13:16:19;;;;;;;1.73;1.63;;;;;;;;;;7305250;19;140692;-75
2023/09/15 13:18:47;;;;;;;1.75;1.65;;;;;;;;;;7304749;19;140696;-74
2023/09/15 13:21:14;;;;;;;1.67;1.58;;;;;;;;;;7304246;19;141754;-75
2023/09/15 13:23:41;;;;;;;2.28;1.70;;;;;;;;;;7304867;19;142525;-75
2023/09/15 13:26:09;;;;;;;2.00;1.75;;;;;;;;;;7303829;19;140469;-75
2023/09/15 13:28:36;;;;;;;1.70;1.60;;;;;;;;;;7302262;19;140594;-75
2023/09/15 13:31:06;;;;;;;1.90;1.80;;;;;;;;;;7303328;19;141345;-80
2023/09/15 13:33:33;;;;;;;2.93;2.27;;;;;;;;;;7302799;19;141860;-76
2023/09/15 13:36:00;;;;;;;3.17;2.10;;;;;;;;;;7304107;19;140802;-75
2023/09/15 13:38:27;;;;;;;3.45;2.00;;;;;;;;;;7303905;19;140590;-75
2023/09/15 13:40:54;;;;;;;3.28;2.30;;;;;;;;;;7303564;19;142119;-76
2023/09/15 13:43:21;;;;;;;3.40;2.20;;;;;;;;;;7301322;19;141841;-76
2023/09/15 13:45:52;;;;;;;4.72;2.10;;;;;;;;;;7303628;19;140807;-76
2023/09/15 13:48:20;;;;;;;3.45;2.00;;;;;;;;;;7301539;19;140712;-77
2023/09/15 13:50:48;;;;;;;3.90;1.95;;;;;;;;;;7304053;19;141375;-75
2023/09/15 13:53:15;;;;;;;2.33;2.13;;;;;;;;;;7302319;19;142787;-75
2023/09/15 13:55:43;;;;;;;3.80;2.28;;;;;;;;;;7298095;19;141865;-77
2023/09/15 13:58:15;;;;;;;2.60;1.95;;;;;;;;;;7300594;19;142457;-76
2023/09/15 14:00:54;;;;;;;2.22;1.90;;;;;;;;;;7303428;19;141709;-77
2023/09/15 14:03:23;;;;;;;3.75;1.98;;;;;;;;;;7303312;19;142184;-77
2023/09/15 14:05:50;;;;;;;2.58;1.92;;;;;;;;;;7303669;19;141042;-78
2023/09/15 14:08:17;;;;;;;2.65;2.00;;;;;;;;;;7303480;19;140713;-80
2023/09/15 14:10:50;;;;;;;4.57;2.10;;;;;;;;;;7300488;19;140802;-81
2023/09/15 14:13:19;;;;;;;6.43;2.70;;;;;;;;;;7302451;19;141877;-81
2023/09/15 14:15:46;;;;;;;7.47;2.58;;;;;;;;;;7304062;19;140565;-82
2023/09/15 14:18:15;;;;;;;3.92;2.60;;;;;;;;;;7302749;19;140726;-81
2023/09/15 14:20:43;;;;;;;5.57;2.90;;;;;;;;;;7301164;19;140519;-81
2023/09/15 14:23:10;;;;;;;5.10;2.65;;;;;;;;;;7302827;19;142802;-81
2023/09/15 14:25:37;;;;;;;7.25;2.70;;;;;;;;;;7301398;19;140704;-81
2023/09/15 14:28:11;;;;;;;5.82;2.80;;;;;;;;;;7301196;19;140627;-80
2023/09/15 14:30:39;;;;;;;3.42;2.70;;;;;;;;;;7302708;19;140784;-80
2023/09/15 14:33:06;;;;;;;5.47;2.70;;;;;;;;;;7302304;19;141167;-80
2023/09/15 14:35:33;;;;;;;5.15;2.65;;;;;;;;;;7302504;19;140470;-80
2023/09/15 14:38:00;;;;;;;3.30;2.47;;;;;;;;;;7302879;19;140775;-82